sensor_id;sensor_type;location;lat;lon;timestamp;pressure;altitude;pressure_sealevel;temperature;humidity
33949;BME280;20229;49.856;19.030;2023-02-03T00:01:27;102283.09;;;0.72;85.12
33949;BME280;20229;49.856;19.030;2023-02-03T00:06:49;102284.88;;;0.71;85.05
33949;BME280;20229;49.856;19.030;2023-02-03T00:11:56;102282.21;;;0.75;84.88
33949;BME280;20229;49.856;19.030;2023-02-03T00:17:14;102297.41;;;0.71;84.88
33949;BME280;20229;49.856;19.030;2023-02-03T00:22:24;102286.67;;;0.73;84.80
33949;BME280;20229;49.856;19.030;2023-02-03T00:27:42;102292.87;;;0.67;84.46
33949;BME280;20229;49.856;19.030;2023-02-03T00:32:46;102294.63;;;0.63;84.55
33949;BME280;20229;49.856;19.030;2023-02-03T00:38:06;102309.75;;;0.51;84.75
33949;BME280;20229;49.856;19.030;2023-02-03T00:43:09;102310.64;;;0.50;84.53
33949;BME280;20229;49.856;19.030;2023-02-03T00:48:31;102320.38;;;0.41;84.36
33949;BME280;20229;49.856;19.030;2023-02-03T00:53:34;102318.59;;;0.40;84.52
33949;BME280;20229;49.856;19.030;2023-02-03T00:58:57;102322.91;;;0.26;84.50
33949;BME280;20229;49.856;19.030;2023-02-03T01:04:01;102318.30;;;0.16;84.55
33949;BME280;20229;49.856;19.030;2023-02-03T01:09:23;102320.82;;;0.02;84.87
33949;BME280;20229;49.856;19.030;2023-02-03T01:14:26;102309.98;;;-0.04;85.25
33949;BME280;20229;49.856;19.030;2023-02-03T01:19:50;102321.61;;;-0.07;85.43
33949;BME280;20229;49.856;19.030;2023-02-03T01:24:53;102301.08;;;-0.02;85.44
33949;BME280;20229;49.856;19.030;2023-02-03T01:30:14;102310.84;;;-0.10;85.40
33949;BME280;20229;49.856;19.030;2023-02-03T01:35:18;102299.06;;;-0.18;85.33
33949;BME280;20229;49.856;19.030;2023-02-03T01:40:43;102307.07;;;-0.22;85.76
33949;BME280;20229;49.856;19.030;2023-02-03T01:45:47;102298.17;;;-0.18;85.89
33949;BME280;20229;49.856;19.030;2023-02-03T01:51:06;102302.59;;;-0.22;85.64
33949;BME280;20229;49.856;19.030;2023-02-03T01:56:12;102289.12;;;-0.28;85.61
33949;BME280;20229;49.856;19.030;2023-02-03T02:01:32;102288.03;;;-0.42;85.85
33949;BME280;20229;49.856;19.030;2023-02-03T02:06:36;102279.00;;;-0.47;86.22
33949;BME280;20229;49.856;19.030;2023-02-03T02:11:57;102281.54;;;-0.57;86.17
33949;BME280;20229;49.856;19.030;2023-02-03T02:17:08;102271.70;;;-0.58;86.15
33949;BME280;20229;49.856;19.030;2023-02-03T02:33:01;102255.24;;;-0.82;86.34
33949;BME280;20229;49.856;19.030;2023-02-03T02:48:47;102245.08;;;-1.05;86.74
33949;BME280;20229;49.856;19.030;2023-02-03T02:53:55;102223.48;;;-1.14;87.05
33949;BME280;20229;49.856;19.030;2023-02-03T02:59:02;102220.74;;;-1.17;87.18
33949;BME280;20229;49.856;19.030;2023-02-03T03:04:09;102209.95;;;-1.23;87.06
33949;BME280;20229;49.856;19.030;2023-02-03T03:14:33;102223.37;;;-1.23;87.57
33949;BME280;20229;49.856;19.030;2023-02-03T03:19:42;102229.62;;;-1.21;87.56
33949;BME280;20229;49.856;19.030;2023-02-03T03:25:05;102242.96;;;-1.24;87.77
33949;BME280;20229;49.856;19.030;2023-02-03T03:35:31;102232.30;;;-1.21;87.97
33949;BME280;20229;49.856;19.030;2023-02-03T03:40:41;102240.46;;;-1.13;87.98
33949;BME280;20229;49.856;19.030;2023-02-03T03:45:56;102244.98;;;-1.11;88.05
33949;BME280;20229;49.856;19.030;2023-02-03T03:51:06;102240.62;;;-1.04;87.88
33949;BME280;20229;49.856;19.030;2023-02-03T03:56:19;102212.92;;;-1.05;87.78
33949;BME280;20229;49.856;19.030;2023-02-03T04:01:26;102206.77;;;-0.98;87.74
33949;BME280;20229;49.856;19.030;2023-02-03T04:06:41;102198.70;;;-0.99;87.70
33949;BME280;20229;49.856;19.030;2023-02-03T04:11:47;102188.06;;;-0.94;87.48
33949;BME280;20229;49.856;19.030;2023-02-03T04:17:07;102189.80;;;-0.97;87.57
33949;BME280;20229;49.856;19.030;2023-02-03T04:22:11;102192.59;;;-0.89;87.19
33949;BME280;20229;49.856;19.030;2023-02-03T04:27:33;102190.79;;;-0.90;87.34
33949;BME280;20229;49.856;19.030;2023-02-03T04:32:37;102166.72;;;-0.85;87.06
33949;BME280;20229;49.856;19.030;2023-02-03T04:37:58;102161.36;;;-0.85;87.09
33949;BME280;20229;49.856;19.030;2023-02-03T04:43:06;102149.82;;;-0.80;87.22
33949;BME280;20229;49.856;19.030;2023-02-03T04:48:27;102131.99;;;-0.78;87.11
33949;BME280;20229;49.856;19.030;2023-02-03T04:53:31;102119.52;;;-0.73;86.91
33949;BME280;20229;49.856;19.030;2023-02-03T04:58:50;102120.38;;;-0.75;87.09
33949;BME280;20229;49.856;19.030;2023-02-03T05:03:53;102107.05;;;-0.70;86.96
33949;BME280;20229;49.856;19.030;2023-02-03T05:09:15;102098.09;;;-0.71;86.79
33949;BME280;20229;49.856;19.030;2023-02-03T05:14:19;102090.11;;;-0.65;86.56
33949;BME280;20229;49.856;19.030;2023-02-03T05:19:41;102090.11;;;-0.65;86.63
33949;BME280;20229;49.856;19.030;2023-02-03T05:24:45;102074.06;;;-0.62;86.58
33949;BME280;20229;49.856;19.030;2023-02-03T05:30:08;102043.63;;;-0.64;86.66
33949;BME280;20229;49.856;19.030;2023-02-03T05:35:12;102033.84;;;-0.60;86.90
33949;BME280;20229;49.856;19.030;2023-02-03T05:40:33;102032.94;;;-0.62;86.65
33949;BME280;20229;49.856;19.030;2023-02-03T05:45:48;102037.48;;;-0.55;86.38
33949;BME280;20229;49.856;19.030;2023-02-03T05:50:59;102040.16;;;-0.54;85.94
33949;BME280;20229;49.856;19.030;2023-02-03T05:56:02;102025.05;;;-0.47;85.23
33949;BME280;20229;49.856;19.030;2023-02-03T06:01:24;102025.08;;;-0.44;84.76
33949;BME280;20229;49.856;19.030;2023-02-03T06:06:28;102009.94;;;-0.37;84.05
33949;BME280;20229;49.856;19.030;2023-02-03T06:11:50;102009.94;;;-0.37;83.69
33949;BME280;20229;49.856;19.030;2023-02-03T06:16:53;101995.70;;;-0.30;83.52
33949;BME280;20229;49.856;19.030;2023-02-03T06:22:15;101993.01;;;-0.29;83.24
33949;BME280;20229;49.856;19.030;2023-02-03T06:27:19;101991.28;;;-0.22;83.02
33949;BME280;20229;49.856;19.030;2023-02-03T06:32:41;101985.05;;;-0.21;82.88
33949;BME280;20229;49.856;19.030;2023-02-03T06:37:45;101985.08;;;-0.15;82.49
33949;BME280;20229;49.856;19.030;2023-02-03T06:43:07;101972.59;;;-0.11;82.23
33949;BME280;20229;49.856;19.030;2023-02-03T06:48:10;101955.63;;;-0.06;82.86
33949;BME280;20229;49.856;19.030;2023-02-03T06:53:33;101958.34;;;-0.03;82.50
33949;BME280;20229;49.856;19.030;2023-02-03T06:58:36;101944.10;;;0.08;81.44
33949;BME280;20229;49.856;19.030;2023-02-03T07:03:58;101935.17;;;0.12;80.96
33949;BME280;20229;49.856;19.030;2023-02-03T07:09:04;101930.76;;;0.21;79.83
33949;BME280;20229;49.856;19.030;2023-02-03T07:14:23;101920.92;;;0.28;78.99
33949;BME280;20229;49.856;19.030;2023-02-03T07:19:27;101899.51;;;0.40;79.12
33949;BME280;20229;49.856;19.030;2023-02-03T07:24:49;101902.24;;;0.50;78.52
33949;BME280;20229;49.856;19.030;2023-02-03T07:29:52;101893.34;;;0.64;78.01
33949;BME280;20229;49.856;19.030;2023-02-03T07:35:15;101887.09;;;0.79;78.52
33949;BME280;20229;49.856;19.030;2023-02-03T07:40:19;101882.66;;;0.93;77.65
33949;BME280;20229;49.856;19.030;2023-02-03T07:45:41;101881.77;;;1.04;77.98
33949;BME280;20229;49.856;19.030;2023-02-03T07:50:44;101883.56;;;1.20;77.97
33949;BME280;20229;49.856;19.030;2023-02-03T07:56:06;101871.02;;;1.30;76.58
33949;BME280;20229;49.856;19.030;2023-02-03T08:01:14;101867.44;;;1.40;76.76
33949;BME280;20229;49.856;19.030;2023-02-03T08:06:31;101858.48;;;1.42;77.64
33949;BME280;20229;49.856;19.030;2023-02-03T08:11:35;101837.82;;;1.55;78.54
33949;BME280;20229;49.856;19.030;2023-02-03T08:16:57;101836.89;;;1.73;77.52
33949;BME280;20229;49.856;19.030;2023-02-03T08:22:00;101835.96;;;1.93;76.84
33949;BME280;20229;49.856;19.030;2023-02-03T08:27:23;101832.34;;;2.01;76.63
33949;BME280;20229;49.856;19.030;2023-02-03T08:32:26;101826.93;;;2.10;75.40
33949;BME280;20229;49.856;19.030;2023-02-03T08:37:48;101820.63;;;2.16;76.42
33949;BME280;20229;49.856;19.030;2023-02-03T08:42:52;101822.39;;;2.23;75.64
33949;BME280;20229;49.856;19.030;2023-02-03T08:48:14;101809.80;;;2.22;77.11
33949;BME280;20229;49.856;19.030;2023-02-03T08:53:18;101796.31;;;2.28;76.60
33949;BME280;20229;49.856;19.030;2023-02-03T08:58:40;101783.75;;;2.27;76.49
33949;BME280;20229;49.856;19.030;2023-02-03T09:03:43;101770.22;;;2.36;76.83
33949;BME280;20229;49.856;19.030;2023-02-03T09:09:05;101766.56;;;2.47;76.83
33949;BME280;20229;49.856;19.030;2023-02-03T09:14:09;101751.17;;;2.64;75.23
33949;BME280;20229;49.856;19.030;2023-02-03T09:19:31;101740.34;;;2.73;76.24
33949;BME280;20229;49.856;19.030;2023-02-03T09:24:35;101724.05;;;2.87;75.15
33949;BME280;20229;49.856;19.030;2023-02-03T09:29:57;101703.29;;;2.95;74.80
33949;BME280;20229;49.856;19.030;2023-02-03T09:35:00;101687.01;;;3.06;75.22
33949;BME280;20229;49.856;19.030;2023-02-03T09:40:29;101671.72;;;3.03;74.91
33949;BME280;20229;49.856;19.030;2023-02-03T09:45:34;101648.26;;;3.13;75.13
33949;BME280;20229;49.856;19.030;2023-02-03T09:50:49;101629.31;;;3.19;75.94
33949;BME280;20229;49.856;19.030;2023-02-03T09:55:53;101605.76;;;3.33;75.83
33949;BME280;20229;49.856;19.030;2023-02-03T10:01:15;101580.48;;;3.41;76.44
33949;BME280;20229;49.856;19.030;2023-02-03T10:06:32;101556.88;;;3.55;77.07
33949;BME280;20229;49.856;19.030;2023-02-03T10:11:51;101548.75;;;3.58;77.25
33949;BME280;20229;49.856;19.030;2023-02-03T10:22:18;101495.76;;;3.51;77.14
33949;BME280;20229;49.856;19.030;2023-02-03T10:27:23;101477.79;;;3.48;78.15
33949;BME280;20229;49.856;19.030;2023-02-03T10:32:31;101470.54;;;3.52;79.08
33949;BME280;20229;49.856;19.030;2023-02-03T10:37:43;101446.08;;;3.63;79.51
33949;BME280;20229;49.856;19.030;2023-02-03T10:42:57;101415.39;;;3.67;80.61
33949;BME280;20229;49.856;19.030;2023-02-03T10:48:16;101409.07;;;3.69;80.97
33949;BME280;20229;49.856;19.030;2023-02-03T10:53:33;101392.90;;;3.66;81.73
33949;BME280;20229;49.856;19.030;2023-02-03T10:58:40;101382.11;;;3.66;82.37
33949;BME280;20229;49.856;19.030;2023-02-03T11:09:20;101329.97;;;3.64;83.70
33949;BME280;20229;49.856;19.030;2023-02-03T11:14:17;101321.87;;;3.63;84.81
33949;BME280;20229;49.856;19.030;2023-02-03T11:19:21;101308.23;;;3.70;84.54
33949;BME280;20229;49.856;19.030;2023-02-03T11:24:41;101284.80;;;3.72;85.91
33949;BME280;20229;49.856;19.030;2023-02-03T11:29:47;101259.40;;;3.82;85.77
33949;BME280;20229;49.856;19.030;2023-02-03T11:40:26;101224.90;;;3.97;87.28
33949;BME280;20229;49.856;19.030;2023-02-03T11:45:37;101205.11;;;3.95;88.26
33949;BME280;20229;49.856;19.030;2023-02-03T12:06:46;101154.48;;;4.04;88.56
33949;BME280;20229;49.856;19.030;2023-02-03T12:12:05;101133.75;;;4.06;88.50
33949;BME280;20229;49.856;19.030;2023-02-03T12:33:01;101086.00;;;4.07;88.77
33949;BME280;20229;49.856;19.030;2023-02-03T12:38:13;101069.85;;;4.04;89.49
33949;BME280;20229;49.856;19.030;2023-02-03T12:43:26;101066.22;;;4.05;89.35
33949;BME280;20229;49.856;19.030;2023-02-03T12:53:52;101022.23;;;4.00;89.13
33949;BME280;20229;49.856;19.030;2023-02-03T12:59:05;101015.16;;;3.94;89.81
33949;BME280;20229;49.856;19.030;2023-02-03T13:14:51;100997.38;;;3.86;90.56
33949;BME280;20229;49.856;19.030;2023-02-03T13:20:05;100970.39;;;3.84;90.97
33949;BME280;20229;49.856;19.030;2023-02-03T13:46:22;100925.70;;;3.72;92.28
33949;BME280;20229;49.856;19.030;2023-02-03T13:51:29;100908.88;;;3.61;92.03
33949;BME280;20229;49.856;19.030;2023-02-03T13:56:39;100884.73;;;3.55;92.06
33949;BME280;20229;49.856;19.030;2023-02-03T14:01:44;100866.84;;;3.51;92.66
33949;BME280;20229;49.856;19.030;2023-02-03T14:06:54;100855.11;;;3.52;92.56
33949;BME280;20229;49.856;19.030;2023-02-03T14:22:30;100819.27;;;3.47;93.86
33949;BME280;20229;49.856;19.030;2023-02-03T14:27:34;100823.66;;;3.49;94.18
33949;BME280;20229;49.856;19.030;2023-02-03T14:37:57;100791.46;;;3.43;94.39
33949;BME280;20229;49.856;19.030;2023-02-03T14:59:01;100779.73;;;3.44;94.91
33949;BME280;20229;49.856;19.030;2023-02-03T15:14:34;100759.63;;;3.56;96.56
33949;BME280;20229;49.856;19.030;2023-02-03T15:19:41;100778.28;;;3.65;95.94
33949;BME280;20229;49.856;19.030;2023-02-03T15:24:44;100775.45;;;3.70;96.50
33949;BME280;20229;49.856;19.030;2023-02-03T15:29:54;100801.41;;;3.75;96.83
33949;BME280;20229;49.856;19.030;2023-02-03T15:35:08;100764.44;;;3.77;96.59
33949;BME280;20229;49.856;19.030;2023-02-03T15:40:17;100821.92;;;3.82;97.33
33949;BME280;20229;49.856;19.030;2023-02-03T15:45:30;100879.45;;;3.84;97.09
33949;BME280;20229;49.856;19.030;2023-02-03T15:50:45;100878.50;;;3.87;97.60
33949;BME280;20229;49.856;19.030;2023-02-03T15:55:54;100852.45;;;3.84;97.98
33949;BME280;20229;49.856;19.030;2023-02-03T16:01:03;100847.84;;;3.90;97.83
33949;BME280;20229;49.856;19.030;2023-02-03T16:11:36;100874.84;;;3.90;97.15
33949;BME280;20229;49.856;19.030;2023-02-03T16:16:42;100881.26;;;3.86;97.18
33949;BME280;20229;49.856;19.030;2023-02-03T16:21:55;100868.63;;;3.86;97.13
33949;BME280;20229;49.856;19.030;2023-02-03T16:32:22;100880.45;;;3.82;96.79
33949;BME280;20229;49.856;19.030;2023-02-03T16:37:43;100899.45;;;3.77;96.89
33949;BME280;20229;49.856;19.030;2023-02-03T16:42:58;100895.86;;;3.77;96.87
33949;BME280;20229;49.856;19.030;2023-02-03T16:48:14;100892.28;;;3.76;96.71
33949;BME280;20229;49.856;19.030;2023-02-03T16:53:31;100895.86;;;3.77;96.55
33949;BME280;20229;49.856;19.030;2023-02-03T16:58:35;100901.23;;;3.78;97.17
33949;BME280;20229;49.856;19.030;2023-02-03T17:03:38;100905.57;;;3.84;97.00
33949;BME280;20229;49.856;19.030;2023-02-03T17:08:49;100897.53;;;3.82;96.73
33949;BME280;20229;49.856;19.030;2023-02-03T17:13:54;100901.95;;;3.85;97.42
33949;BME280;20229;49.856;19.030;2023-02-03T17:19:15;100905.56;;;3.86;96.73
33949;BME280;20229;49.856;19.030;2023-02-03T17:24:18;100913.53;;;3.90;96.64
33949;BME280;20229;49.856;19.030;2023-02-03T17:29:40;100920.74;;;3.90;97.02
33949;BME280;20229;49.856;19.030;2023-02-03T17:34:44;100920.59;;;3.96;97.02
33949;BME280;20229;49.856;19.030;2023-02-03T17:40:08;100922.52;;;3.91;97.26
33949;BME280;20229;49.856;19.030;2023-02-03T17:45:11;100924.28;;;3.92;96.81
33949;BME280;20229;49.856;19.030;2023-02-03T17:50:32;100930.62;;;3.91;96.95
33949;BME280;20229;49.856;19.030;2023-02-03T17:55:37;100927.77;;;3.97;97.01
33949;BME280;20229;49.856;19.030;2023-02-03T18:00:57;100934.05;;;3.97;97.06
33949;BME280;20229;49.856;19.030;2023-02-03T18:06:01;100935.74;;;4.01;96.92
33949;BME280;20229;49.856;19.030;2023-02-03T18:11:23;100926.80;;;3.99;96.83
33949;BME280;20229;49.856;19.030;2023-02-03T18:16:29;100933.91;;;4.03;96.87
33949;BME280;20229;49.856;19.030;2023-02-03T18:21:49;100949.23;;;4.03;96.73
33949;BME280;20229;49.856;19.030;2023-02-03T18:26:53;100944.63;;;4.06;96.36
33949;BME280;20229;49.856;19.030;2023-02-03T18:32:15;100951.93;;;4.03;96.36
33949;BME280;20229;49.856;19.030;2023-02-03T18:37:19;100950.91;;;4.07;96.31
33949;BME280;20229;49.856;19.030;2023-02-03T18:42:41;100969.85;;;4.05;96.15
33949;BME280;20229;49.856;19.030;2023-02-03T18:47:44;100963.49;;;4.08;95.79
33949;BME280;20229;49.856;19.030;2023-02-03T18:53:07;100977.05;;;4.06;95.69
33949;BME280;20229;49.856;19.030;2023-02-03T18:58:11;100967.05;;;4.10;95.59
33949;BME280;20229;49.856;19.030;2023-02-03T19:03:33;100978.84;;;4.06;95.34
33949;BME280;20229;49.856;19.030;2023-02-03T19:08:37;100972.45;;;4.10;94.95
33949;BME280;20229;49.856;19.030;2023-02-03T19:13:58;100982.48;;;4.05;94.88
33949;BME280;20229;49.856;19.030;2023-02-03T19:19:01;100978.82;;;4.07;94.89
33949;BME280;20229;49.856;19.030;2023-02-03T19:24:24;100985.18;;;4.05;95.12
33949;BME280;20229;49.856;19.030;2023-02-03T19:29:29;100989.65;;;4.06;94.96
33949;BME280;20229;49.856;19.030;2023-02-03T19:34:50;100999.70;;;4.01;95.19
33949;BME280;20229;49.856;19.030;2023-02-03T19:39:53;101015.89;;;4.01;95.13
33949;BME280;20229;49.856;19.030;2023-02-03T19:45:16;100991.86;;;3.90;95.07
33949;BME280;20229;49.856;19.030;2023-02-03T19:50:19;101011.78;;;3.84;95.19
33949;BME280;20229;49.856;19.030;2023-02-03T19:55:42;101002.05;;;3.77;95.26
33949;BME280;20229;49.856;19.030;2023-02-03T20:00:46;100984.16;;;3.73;94.68
33949;BME280;20229;49.856;19.030;2023-02-03T20:06:08;100988.05;;;3.62;94.89
33949;BME280;20229;49.856;19.030;2023-02-03T20:11:12;100987.23;;;3.58;94.77
33949;BME280;20229;49.856;19.030;2023-02-03T20:16:33;100982.88;;;3.51;95.27
33949;BME280;20229;49.856;19.030;2023-02-03T20:21:37;100994.52;;;3.53;95.39
33949;BME280;20229;49.856;19.030;2023-02-03T20:26:59;100991.98;;;3.47;95.71
33949;BME280;20229;49.856;19.030;2023-02-03T20:32:03;100983.91;;;3.45;95.41
33949;BME280;20229;49.856;19.030;2023-02-03T20:37:25;100984.02;;;3.41;96.00
33949;BME280;20229;49.856;19.030;2023-02-03T20:43:19;100975.06;;;3.39;96.00
33949;BME280;20229;49.856;19.030;2023-02-03T20:48:43;100978.76;;;3.34;96.06
33949;BME280;20229;49.856;19.030;2023-02-03T20:53:46;100971.55;;;3.35;96.32
33949;BME280;20229;49.856;19.030;2023-02-03T20:59:10;100968.96;;;3.30;96.23
33949;BME280;20229;49.856;19.030;2023-02-03T21:04:17;100966.25;;;3.30;96.25
33949;BME280;20229;49.856;19.030;2023-02-03T21:09:34;100966.38;;;3.24;96.56
33949;BME280;20229;49.856;19.030;2023-02-03T21:14:42;100964.55;;;3.26;96.95
33949;BME280;20229;49.856;19.030;2023-02-03T21:20:00;100968.26;;;3.22;96.87
33949;BME280;20229;49.856;19.030;2023-02-03T21:25:05;100974.46;;;3.26;96.96
33949;BME280;20229;49.856;19.030;2023-02-03T21:30:29;100971.02;;;3.18;97.04
33949;BME280;20229;49.856;19.030;2023-02-03T21:35:36;100974.55;;;3.21;96.85
33949;BME280;20229;49.856;19.030;2023-02-03T21:40:52;100981.80;;;3.19;97.14
33949;BME280;20229;49.856;19.030;2023-02-03T21:45:59;100979.92;;;3.23;97.60
33949;BME280;20229;49.856;19.030;2023-02-03T21:51:33;100985.26;;;3.26;97.79
33949;BME280;20229;49.856;19.030;2023-02-03T21:56:44;100977.91;;;3.32;98.15
33949;BME280;20229;49.856;19.030;2023-02-03T22:01:48;100972.42;;;3.35;99.06
33949;BME280;20229;49.856;19.030;2023-02-03T22:06:52;100975.87;;;3.42;98.64
33949;BME280;20229;49.856;19.030;2023-02-03T22:12:09;100977.67;;;3.43;98.74
33949;BME280;20229;49.856;19.030;2023-02-03T22:17:13;100967.65;;;3.48;98.89
33949;BME280;20229;49.856;19.030;2023-02-03T22:22:35;100962.25;;;3.48;99.15
33949;BME280;20229;49.856;19.030;2023-02-03T22:27:38;100955.84;;;3.52;99.21
33949;BME280;20229;49.856;19.030;2023-02-03T22:33:01;100978.30;;;3.54;99.26
33949;BME280;20229;49.856;19.030;2023-02-03T22:38:04;100966.46;;;3.60;99.51
33949;BME280;20229;49.856;19.030;2023-02-03T22:43:27;100970.98;;;3.59;99.64
33949;BME280;20229;49.856;19.030;2023-02-03T22:48:44;100965.45;;;3.66;99.29
33949;BME280;20229;49.856;19.030;2023-02-03T22:53:52;100956.41;;;3.67;99.39
33949;BME280;20229;49.856;19.030;2023-02-03T22:58:56;100962.67;;;3.69;99.04
33949;BME280;20229;49.856;19.030;2023-02-03T23:04:18;100965.51;;;3.63;99.11
33949;BME280;20229;49.856;19.030;2023-02-03T23:09:21;100967.33;;;3.62;98.68
33949;BME280;20229;49.856;19.030;2023-02-03T23:14:44;100973.73;;;3.58;98.87
33949;BME280;20229;49.856;19.030;2023-02-03T23:19:47;100969.21;;;3.58;98.48
33949;BME280;20229;49.856;19.030;2023-02-03T23:25:11;100949.63;;;3.50;98.27
33949;BME280;20229;49.856;19.030;2023-02-03T23:30:14;100954.09;;;3.51;98.31
33949;BME280;20229;49.856;19.030;2023-02-03T23:35:35;100944.23;;;3.49;98.65
33949;BME280;20229;49.856;19.030;2023-02-03T23:40:48;100949.55;;;3.53;99.04
33949;BME280;20229;49.856;19.030;2023-02-03T23:46:03;100938.75;;;3.53;99.10
33949;BME280;20229;49.856;19.030;2023-02-03T23:51:07;100933.18;;;3.59;99.28
33949;BME280;20229;49.856;19.030;2023-02-03T23:56:27;100926.91;;;3.59;99.24
